Time;durP1;ratioP1;P1;durP2;ratioP2;P2;SDS_P1;SDS_P2;PMS_P1;PMS_P2;Temp;Humidity;BMP_temperature;BMP_pressure;BME280_temperature;BME280_humidity;BME280_pressure;Samples;Min_cycle;Max_cycle;Signal;HPM_P1;HPM_P2
2022/06/27 00:01:39;;;;;;;11.87;3.03;;;;;;;;;;5052094;28;20433;-40
2022/06/27 00:04:05;;;;;;;5.70;2.60;;;;;;;;;;5050854;28;20178;-40
2022/06/27 00:06:31;;;;;;;10.20;3.00;;;;;;;;;;5054040;28;20186;-43
2022/06/27 00:08:57;;;;;;;11.23;3.30;;;;;;;;;;5050989;28;20706;-42
2022/06/27 00:11:23;;;;;;;4.70;2.50;;;;;;;;;;5050112;28;20637;-43
2022/06/27 00:13:49;;;;;;;11.70;3.20;;;;;;;;;;5054593;28;20189;-42
2022/06/27 00:16:16;;;;;;;8.63;2.90;;;;;;;;;;5054072;28;20803;-42
2022/06/27 00:18:42;;;;;;;6.73;2.53;;;;;;;;;;5053428;28;20180;-43
2022/06/27 00:21:08;;;;;;;8.13;2.77;;;;;;;;;;5053441;28;20191;-43
2022/06/27 00:23:34;;;;;;;6.90;2.83;;;;;;;;;;5070364;28;21016;-42
2022/06/27 00:26:00;;;;;;;10.03;3.20;;;;;;;;;;5053881;28;20847;-43
2022/06/27 00:28:26;;;;;;;7.87;2.60;;;;;;;;;;5049808;28;21423;-40
2022/06/27 00:30:52;;;;;;;5.10;2.67;;;;;;;;;;5050245;28;20486;-40
2022/06/27 00:33:18;;;;;;;9.30;3.43;;;;;;;;;;5047590;28;20176;-40
2022/06/27 00:35:44;;;;;;;13.87;3.73;;;;;;;;;;5039034;28;20365;-40
2022/06/27 00:38:10;;;;;;;9.20;3.10;;;;;;;;;;5051538;28;20492;-40
2022/06/27 00:40:36;;;;;;;11.43;3.50;;;;;;;;;;5057787;28;20167;-40
2022/06/27 00:43:03;;;;;;;8.67;3.70;;;;;;;;;;5056956;28;21109;-40
2022/06/27 00:45:29;;;;;;;8.60;3.37;;;;;;;;;;5050679;28;20159;-40
2022/06/27 00:47:55;;;;;;;9.93;3.40;;;;;;;;;;5054489;28;20171;-39
2022/06/27 00:50:21;;;;;;;10.40;3.33;;;;;;;;;;5059273;28;20175;-40
2022/06/27 00:52:47;;;;;;;12.40;3.40;;;;;;;;;;5050260;28;21023;-40
2022/06/27 00:55:13;;;;;;;13.33;4.20;;;;;;;;;;5053941;28;20206;-40
2022/06/27 00:57:39;;;;;;;21.13;3.90;;;;;;;;;;5056060;28;20186;-42
2022/06/27 01:00:07;;;;;;;15.07;4.13;;;;;;;;;;5054923;28;20178;-42
2022/06/27 01:02:33;;;;;;;10.53;4.00;;;;;;;;;;5055103;28;20213;-42
2022/06/27 01:04:59;;;;;;;11.87;4.23;;;;;;;;;;5054240;28;20864;-42
2022/06/27 01:07:25;;;;;;;9.00;3.40;;;;;;;;;;5055241;28;20239;-43
2022/06/27 01:09:52;;;;;;;9.57;3.80;;;;;;;;;;5051918;28;20182;-41
2022/06/27 01:12:18;;;;;;;12.33;4.37;;;;;;;;;;5055265;28;20403;-42
2022/06/27 01:14:44;;;;;;;10.80;3.57;;;;;;;;;;5051388;28;20790;-42
2022/06/27 01:17:11;;;;;;;8.47;3.80;;;;;;;;;;5053326;28;20590;-41
2022/06/27 01:19:39;;;;;;;10.90;4.40;;;;;;;;;;5055796;28;20629;-41
2022/06/27 01:22:06;;;;;;;9.47;3.90;;;;;;;;;;5053615;28;20309;-43
2022/06/27 01:24:33;;;;;;;9.13;4.00;;;;;;;;;;5053215;28;20179;-42
2022/06/27 01:26:59;;;;;;;12.33;4.63;;;;;;;;;;5054133;28;20245;-41
2022/06/27 01:29:25;;;;;;;10.03;4.20;;;;;;;;;;5053051;28;20678;-42
2022/06/27 01:31:51;;;;;;;10.10;4.20;;;;;;;;;;5050289;28;20722;-42
2022/06/27 01:34:17;;;;;;;12.73;4.57;;;;;;;;;;5051451;28;20187;-43
2022/06/27 01:36:44;;;;;;;16.70;4.70;;;;;;;;;;5054099;28;20503;-43
2022/06/27 01:39:14;;;;;;;10.63;4.63;;;;;;;;;;5055069;28;20251;-42
2022/06/27 01:41:42;;;;;;;10.63;4.70;;;;;;;;;;5052835;28;20819;-42
2022/06/27 01:44:09;;;;;;;11.00;4.40;;;;;;;;;;5052268;28;20183;-42
2022/06/27 01:46:54;;;;;;;13.33;5.40;;;;;;;;;;5054886;28;20896;-41
2022/06/27 01:49:20;;;;;;;8.90;4.30;;;;;;;;;;5050951;28;20727;-43
2022/06/27 01:51:48;;;;;;;12.03;4.97;;;;;;;;;;5052263;28;20216;-42
2022/06/27 01:54:15;;;;;;;13.17;4.70;;;;;;;;;;5051731;28;20209;-41
2022/06/27 01:56:42;;;;;;;14.57;5.03;;;;;;;;;;5054268;28;20182;-41
2022/06/27 01:59:09;;;;;;;11.97;4.60;;;;;;;;;;5057252;28;20355;-43
2022/06/27 02:01:36;;;;;;;12.10;5.17;;;;;;;;;;5050282;28;20425;-43
2022/06/27 02:04:02;;;;;;;6.70;4.10;;;;;;;;;;5048801;28;20187;-42
2022/06/27 02:06:31;;;;;;;9.77;4.33;;;;;;;;;;5050051;28;20201;-42
2022/06/27 02:08:58;;;;;;;10.73;4.47;;;;;;;;;;5045169;28;20162;-42
2022/06/27 02:11:25;;;;;;;9.63;4.50;;;;;;;;;;5047442;28;20174;-42
2022/06/27 02:13:52;;;;;;;10.17;5.40;;;;;;;;;;5050577;28;20179;-42
2022/06/27 02:16:19;;;;;;;8.83;4.40;;;;;;;;;;5049335;28;20587;-41
2022/06/27 02:18:45;;;;;;;10.20;4.63;;;;;;;;;;5052462;28;20466;-42
2022/06/27 02:21:12;;;;;;;7.63;3.90;;;;;;;;;;5050995;28;20427;-42
2022/06/27 02:23:39;;;;;;;8.70;4.53;;;;;;;;;;5050596;28;20163;-42
2022/06/27 02:26:09;;;;;;;12.57;5.57;;;;;;;;;;5055883;28;20178;-42
2022/06/27 02:28:35;;;;;;;13.07;5.60;;;;;;;;;;5053564;28;20544;-42
2022/06/27 02:31:02;;;;;;;11.43;5.23;;;;;;;;;;5054356;28;20216;-42
2022/06/27 02:33:35;;;;;;;11.17;5.40;;;;;;;;;;5058138;28;20178;-42
2022/06/27 02:36:02;;;;;;;15.37;5.33;;;;;;;;;;5052951;28;20167;-42
2022/06/27 02:38:29;;;;;;;14.43;5.47;;;;;;;;;;5055847;28;20179;-42
2022/06/27 02:40:56;;;;;;;8.37;4.67;;;;;;;;;;5053319;28;20928;-42
2022/06/27 02:43:22;;;;;;;11.43;5.00;;;;;;;;;;5054947;28;20191;-43
2022/06/27 02:45:49;;;;;;;11.60;5.37;;;;;;;;;;5053794;28;20987;-42
2022/06/27 02:48:17;;;;;;;12.13;4.60;;;;;;;;;;5057705;28;20657;-42
2022/06/27 02:50:45;;;;;;;9.50;4.47;;;;;;;;;;5052653;28;20487;-43
2022/06/27 02:53:12;;;;;;;9.37;5.03;;;;;;;;;;5052745;28;20508;-42
2022/06/27 02:55:40;;;;;;;14.27;5.13;;;;;;;;;;5055183;28;20167;-43
2022/06/27 02:58:44;;;;;;;13.20;5.40;;;;;;;;;;5050668;28;20592;-42
2022/06/27 03:01:13;;;;;;;8.93;4.33;;;;;;;;;;5029151;28;20722;-42
2022/06/27 03:03:41;;;;;;;8.77;4.47;;;;;;;;;;5045440;28;20195;-42
2022/06/27 03:06:07;;;;;;;11.60;5.47;;;;;;;;;;5051180;28;20668;-43
2022/06/27 03:08:44;;;;;;;13.03;5.13;;;;;;;;;;5052692;28;20178;-42
2022/06/27 03:11:11;;;;;;;11.63;5.57;;;;;;;;;;5051693;28;20170;-43
2022/06/27 03:13:37;;;;;;;10.07;5.30;;;;;;;;;;5050655;28;21507;-41
2022/06/27 03:16:03;;;;;;;10.73;5.20;;;;;;;;;;5051514;28;20182;-42
2022/06/27 03:18:30;;;;;;;11.87;6.10;;;;;;;;;;5054356;28;20260;-42
2022/06/27 03:20:56;;;;;;;9.97;5.73;;;;;;;;;;5051460;28;20594;-42
2022/06/27 03:23:22;;;;;;;13.03;5.97;;;;;;;;;;5047600;28;20219;-41
2022/06/27 03:25:48;;;;;;;12.87;5.67;;;;;;;;;;5056436;28;20178;-42
2022/06/27 03:28:14;;;;;;;12.83;5.70;;;;;;;;;;5053795;28;20602;-41
2022/06/27 03:30:40;;;;;;;12.33;5.37;;;;;;;;;;5051099;28;20260;-40
2022/06/27 03:33:06;;;;;;;12.90;6.20;;;;;;;;;;5052788;28;20188;-41
2022/06/27 03:35:32;;;;;;;11.77;6.03;;;;;;;;;;5054729;28;20600;-41
2022/06/27 03:37:59;;;;;;;8.40;4.43;;;;;;;;;;5051681;28;20628;-41
2022/06/27 03:40:25;;;;;;;12.97;5.43;;;;;;;;;;5048966;28;20171;-41
2022/06/27 03:42:51;;;;;;;13.70;5.97;;;;;;;;;;5054637;28;20201;-40
2022/06/27 03:45:18;;;;;;;11.37;6.13;;;;;;;;;;5047943;28;20183;-40
2022/06/27 03:47:48;;;;;;;13.00;6.10;;;;;;;;;;5052806;28;21016;-41
2022/06/27 03:50:14;;;;;;;13.23;6.83;;;;;;;;;;5053704;28;20517;-40
2022/06/27 03:52:43;;;;;;;13.73;6.20;;;;;;;;;;5050337;28;20186;-39
2022/06/27 03:55:10;;;;;;;13.87;6.70;;;;;;;;;;5049535;28;20621;-41
2022/06/27 03:57:39;;;;;;;13.37;6.90;;;;;;;;;;5053648;28;20297;-41
2022/06/27 04:00:09;;;;;;;12.13;8.67;;;;;;;;;;5050157;28;20668;-41
2022/06/27 04:02:36;;;;;;;14.43;8.17;;;;;;;;;;5048906;28;20666;-40
2022/06/27 04:05:05;;;;;;;17.03;8.87;;;;;;;;;;5053074;28;20182;-41
2022/06/27 04:07:31;;;;;;;21.47;9.80;;;;;;;;;;5055521;28;20175;-39
2022/06/27 04:09:58;;;;;;;21.77;8.70;;;;;;;;;;5052325;28;20295;-41
2022/06/27 04:12:24;;;;;;;19.67;9.83;;;;;;;;;;5043405;28;20182;-41
2022/06/27 04:14:51;;;;;;;15.90;9.33;;;;;;;;;;5048183;28;20224;-41
2022/06/27 04:17:17;;;;;;;24.97;10.00;;;;;;;;;;5051812;28;20186;-41
2022/06/27 04:19:43;;;;;;;17.60;9.00;;;;;;;;;;5052428;28;20605;-41
2022/06/27 04:22:09;;;;;;;20.30;10.23;;;;;;;;;;5053352;28;20709;-39
2022/06/27 04:24:36;;;;;;;21.40;10.30;;;;;;;;;;5048325;28;20171;-41
2022/06/27 04:27:02;;;;;;;16.53;8.90;;;;;;;;;;5050155;28;20627;-41
2022/06/27 04:29:29;;;;;;;16.23;10.17;;;;;;;;;;5047489;28;20177;-41
2022/06/27 04:31:56;;;;;;;15.90;9.33;;;;;;;;;;5053835;28;20184;-41
2022/06/27 04:34:22;;;;;;;20.67;10.70;;;;;;;;;;5050933;28;20179;-41
2022/06/27 04:36:48;;;;;;;18.40;12.10;;;;;;;;;;5051729;28;20178;-41
2022/06/27 04:39:17;;;;;;;17.27;11.27;;;;;;;;;;5049577;28;20309;-40
2022/06/27 04:41:46;;;;;;;22.27;11.20;;;;;;;;;;5045830;28;20198;-41
2022/06/27 04:44:13;;;;;;;21.40;12.57;;;;;;;;;;5047540;28;20202;-41
2022/06/27 04:46:40;;;;;;;19.17;12.20;;;;;;;;;;5050447;28;20742;-39
2022/06/27 04:49:06;;;;;;;22.27;13.23;;;;;;;;;;5052691;28;20516;-41
2022/06/27 04:51:33;;;;;;;20.53;13.77;;;;;;;;;;5051422;28;21157;-41
2022/06/27 04:53:59;;;;;;;18.63;12.20;;;;;;;;;;5050637;28;20197;-40
2022/06/27 04:56:25;;;;;;;30.17;14.73;;;;;;;;;;5046935;28;20186;-41
2022/06/27 04:58:52;;;;;;;21.63;13.40;;;;;;;;;;5047110;28;20260;-41
2022/06/27 05:01:18;;;;;;;26.87;15.03;;;;;;;;;;5048710;28;20190;-41
2022/06/27 05:03:44;;;;;;;22.43;14.37;;;;;;;;;;5055537;28;20171;-41
2022/06/27 05:06:10;;;;;;;17.90;12.90;;;;;;;;;;5052229;28;20178;-41
2022/06/27 05:08:37;;;;;;;21.33;13.90;;;;;;;;;;5048068;28;20182;-40
2022/06/27 05:11:04;;;;;;;25.00;13.73;;;;;;;;;;5048256;28;20730;-41
2022/06/27 05:13:31;;;;;;;20.73;13.30;;;;;;;;;;5042053;28;20392;-40
2022/06/27 05:15:57;;;;;;;20.80;11.73;;;;;;;;;;5037494;28;21483;-40
2022/06/27 05:18:23;;;;;;;20.43;12.27;;;;;;;;;;5042348;28;20178;-41
2022/06/27 05:20:50;;;;;;;24.67;13.33;;;;;;;;;;5040716;28;20703;-41
2022/06/27 05:23:16;;;;;;;21.67;12.83;;;;;;;;;;5036835;28;20238;-41
2022/06/27 05:25:42;;;;;;;22.70;12.00;;;;;;;;;;5042115;28;20832;-41
2022/06/27 05:28:08;;;;;;;23.33;13.13;;;;;;;;;;5037427;28;20630;-42
2022/06/27 05:30:35;;;;;;;18.07;11.27;;;;;;;;;;5042242;28;20536;-41
2022/06/27 05:33:01;;;;;;;25.83;12.10;;;;;;;;;;5037504;28;20174;-42
2022/06/27 05:35:27;;;;;;;16.43;10.27;;;;;;;;;;5040762;28;20171;-42
2022/06/27 05:37:54;;;;;;;22.97;12.27;;;;;;;;;;5045996;28;20359;-41
2022/06/27 05:40:20;;;;;;;20.83;10.10;;;;;;;;;;5040794;28;21273;-41
2022/06/27 05:42:47;;;;;;;20.23;10.10;;;;;;;;;;5046150;28;20495;-41
2022/06/27 05:45:14;;;;;;;18.47;11.37;;;;;;;;;;5046454;28;20723;-41
2022/06/27 05:47:40;;;;;;;22.70;10.07;;;;;;;;;;5048709;28;20182;-42
2022/06/27 05:50:07;;;;;;;14.47;9.47;;;;;;;;;;5044918;28;20179;-42
2022/06/27 05:52:34;;;;;;;21.67;9.33;;;;;;;;;;5049474;28;20609;-41
2022/06/27 05:55:00;;;;;;;19.07;8.73;;;;;;;;;;5040396;28;20490;-42
2022/06/27 05:57:28;;;;;;;13.70;8.00;;;;;;;;;;5048100;28;20210;-42
2022/06/27 05:59:55;;;;;;;19.10;9.50;;;;;;;;;;5045106;28;20573;-42
2022/06/27 06:02:25;;;;;;;17.90;10.37;;;;;;;;;;5048336;28;20902;-40
2022/06/27 06:04:51;;;;;;;19.30;9.83;;;;;;;;;;5049522;28;20599;-42
2022/06/27 06:07:18;;;;;;;22.87;10.00;;;;;;;;;;5048890;28;20247;-40
2022/06/27 06:09:44;;;;;;;14.30;8.80;;;;;;;;;;5048325;28;20782;-41
2022/06/27 06:12:12;;;;;;;18.37;9.20;;;;;;;;;;5048605;28;20745;-42
2022/06/27 06:14:39;;;;;;;18.23;9.50;;;;;;;;;;5048065;28;20193;-41
2022/06/27 06:17:05;;;;;;;15.57;9.17;;;;;;;;;;5047933;28;20862;-41
2022/06/27 06:19:32;;;;;;;22.27;10.57;;;;;;;;;;5046965;28;20678;-42
2022/06/27 06:21:58;;;;;;;19.83;11.63;;;;;;;;;;5049117;28;21048;-41
2022/06/27 06:24:25;;;;;;;23.37;12.30;;;;;;;;;;5045130;28;20243;-42
2022/06/27 06:26:56;;;;;;;26.37;13.53;;;;;;;;;;5049351;28;20174;-41
2022/06/27 06:29:22;;;;;;;31.43;14.97;;;;;;;;;;5050934;28;20678;-42
2022/06/27 06:31:49;;;;;;;24.23;14.63;;;;;;;;;;5043895;28;20650;-40
2022/06/27 06:34:16;;;;;;;26.17;14.47;;;;;;;;;;5043272;28;20357;-41
2022/06/27 06:36:43;;;;;;;24.73;13.97;;;;;;;;;;5048858;28;20930;-42
2022/06/27 06:39:10;;;;;;;26.27;14.50;;;;;;;;;;5044194;28;20254;-42
2022/06/27 06:41:36;;;;;;;27.67;14.07;;;;;;;;;;5040072;28;20567;-41
2022/06/27 06:44:05;;;;;;;23.90;13.77;;;;;;;;;;5044113;28;20206;-40
2022/06/27 06:46:35;;;;;;;25.30;12.93;;;;;;;;;;5041014;28;20503;-41
2022/06/27 06:49:06;;;;;;;25.00;13.90;;;;;;;;;;5042922;28;20479;-40
2022/06/27 06:51:36;;;;;;;26.87;14.60;;;;;;;;;;5044468;28;20907;-42
2022/06/27 06:54:04;;;;;;;27.37;13.87;;;;;;;;;;5046212;28;20902;-42
2022/06/27 06:56:30;;;;;;;28.70;14.20;;;;;;;;;;5044188;28;20175;-42
2022/06/27 06:59:00;;;;;;;23.33;13.43;;;;;;;;;;5043699;28;20197;-42
2022/06/27 07:01:27;;;;;;;24.83;13.67;;;;;;;;;;5040482;28;20509;-42
2022/06/27 07:03:54;;;;;;;30.70;14.00;;;;;;;;;;5049571;28;20174;-42
2022/06/27 07:06:25;;;;;;;27.03;13.83;;;;;;;;;;5053507;28;20503;-42
2022/06/27 07:08:53;;;;;;;24.10;14.30;;;;;;;;;;5051354;28;20715;-40
2022/06/27 07:11:20;;;;;;;26.27;13.87;;;;;;;;;;5049731;28;20170;-41
2022/06/27 07:13:46;;;;;;;26.77;15.50;;;;;;;;;;5057055;28;20620;-41
2022/06/27 07:16:14;;;;;;;27.20;14.10;;;;;;;;;;5056889;28;20542;-42
2022/06/27 07:18:40;;;;;;;20.80;13.47;;;;;;;;;;5053492;28;20877;-40
2022/06/27 07:21:06;;;;;;;25.53;13.03;;;;;;;;;;5056190;28;20206;-42
2022/06/27 07:23:33;;;;;;;22.17;12.50;;;;;;;;;;5050831;28;20203;-42
2022/06/27 07:25:59;;;;;;;23.37;12.73;;;;;;;;;;5052998;28;20771;-41
2022/06/27 07:28:28;;;;;;;21.67;11.63;;;;;;;;;;5050083;28;20187;-42
2022/06/27 07:30:55;;;;;;;23.13;12.33;;;;;;;;;;5054954;28;20231;-41
2022/06/27 07:33:22;;;;;;;26.00;12.53;;;;;;;;;;5052842;28;20275;-41
2022/06/27 07:35:48;;;;;;;28.37;12.97;;;;;;;;;;5051008;28;20687;-41
2022/06/27 07:38:14;;;;;;;18.80;11.53;;;;;;;;;;5067718;27;20239;-41
2022/06/27 07:40:42;;;;;;;22.90;12.17;;;;;;;;;;5052891;28;21060;-41
2022/06/27 07:43:13;;;;;;;24.70;12.57;;;;;;;;;;5051934;28;20206;-41
2022/06/27 07:45:40;;;;;;;20.33;13.00;;;;;;;;;;5050241;28;20214;-41
2022/06/27 07:48:06;;;;;;;21.03;13.00;;;;;;;;;;5052740;28;20241;-42
2022/06/27 07:50:42;;;;;;;23.50;13.23;;;;;;;;;;5046324;28;20247;-41
2022/06/27 07:53:13;;;;;;;19.70;11.77;;;;;;;;;;5047172;28;20189;-42
2022/06/27 07:55:42;;;;;;;25.47;12.30;;;;;;;;;;5048731;28;20183;-41
2022/06/27 07:58:14;;;;;;;24.50;13.50;;;;;;;;;;5053430;28;20604;-42
2022/06/27 08:00:41;;;;;;;21.20;12.03;;;;;;;;;;5049998;28;20199;-42
2022/06/27 08:05:53;;;;;;;21.80;11.97;;;;;;;;;;5050654;28;20182;-42
2022/06/27 08:08:21;;;;;;;22.93;11.30;;;;;;;;;;5054525;28;20271;-42
2022/06/27 08:10:47;;;;;;;18.73;11.13;;;;;;;;;;5050735;28;20598;-41
2022/06/27 08:13:13;;;;;;;22.47;11.83;;;;;;;;;;5049984;28;20184;-41
2022/06/27 08:15:41;;;;;;;21.30;10.70;;;;;;;;;;5050425;28;20771;-42
2022/06/27 08:18:08;;;;;;;21.23;10.83;;;;;;;;;;5052762;28;20742;-41
2022/06/27 08:20:35;;;;;;;18.07;10.17;;;;;;;;;;5047757;28;20447;-42
2022/06/27 08:23:01;;;;;;;17.10;9.80;;;;;;;;;;5049959;28;20206;-42
2022/06/27 08:25:28;;;;;;;18.70;10.00;;;;;;;;;;5048570;28;20972;-42
2022/06/27 08:27:55;;;;;;;16.90;8.13;;;;;;;;;;5048906;28;20206;-41
2022/06/27 08:30:25;;;;;;;22.13;9.53;;;;;;;;;;5048984;28;20476;-41
2022/06/27 08:32:56;;;;;;;20.20;9.27;;;;;;;;;;5050863;28;20594;-41
2022/06/27 08:35:24;;;;;;;20.53;9.40;;;;;;;;;;5048769;28;20221;-40
2022/06/27 08:37:51;;;;;;;18.37;8.30;;;;;;;;;;5045691;28;20278;-41
2022/06/27 08:40:17;;;;;;;15.90;8.23;;;;;;;;;;5055010;28;20748;-42
2022/06/27 08:42:45;;;;;;;17.40;8.43;;;;;;;;;;5052780;28;20376;-41
2022/06/27 08:45:13;;;;;;;14.67;8.20;;;;;;;;;;5048682;28;20249;-41
2022/06/27 08:47:41;;;;;;;14.83;7.17;;;;;;;;;;5050177;28;20522;-41
2022/06/27 08:50:08;;;;;;;21.33;7.90;;;;;;;;;;5047611;28;20626;-42
2022/06/27 08:52:39;;;;;;;15.53;7.40;;;;;;;;;;5048109;28;20182;-42
2022/06/27 08:55:07;;;;;;;21.77;7.67;;;;;;;;;;5048609;28;20299;-42
2022/06/27 08:57:33;;;;;;;20.37;7.57;;;;;;;;;;5045795;28;20189;-42
2022/06/27 09:00:04;;;;;;;19.73;7.57;;;;;;;;;;5048648;28;20595;-41
2022/06/27 09:02:30;;;;;;;16.13;7.03;;;;;;;;;;5051786;28;20191;-42
2022/06/27 09:04:58;;;;;;;19.13;6.87;;;;;;;;;;5051443;28;20179;-42
2022/06/27 09:07:24;;;;;;;18.83;7.17;;;;;;;;;;5053120;28;20206;-40
2022/06/27 09:09:50;;;;;;;20.13;7.83;;;;;;;;;;5050525;28;20702;-42
2022/06/27 09:12:17;;;;;;;17.40;7.43;;;;;;;;;;5048592;28;20190;-42
2022/06/27 09:14:44;;;;;;;18.43;7.00;;;;;;;;;;5063351;28;20218;-42
2022/06/27 09:17:16;;;;;;;21.43;7.53;;;;;;;;;;5053483;28;20803;-42
2022/06/27 09:19:46;;;;;;;22.87;7.93;;;;;;;;;;5048974;28;20196;-42
2022/06/27 09:22:14;;;;;;;16.53;6.40;;;;;;;;;;5052497;28;21038;-41
2022/06/27 09:25:05;;;;;;;20.83;7.63;;;;;;;;;;5052543;28;20199;-42
2022/06/27 09:27:44;;;;;;;19.07;7.17;;;;;;;;;;5038283;28;20187;-42
2022/06/27 09:30:20;;;;;;;20.30;7.07;;;;;;;;;;5048611;28;20168;-42
2022/06/27 09:32:49;;;;;;;16.50;6.33;;;;;;;;;;5050287;28;20179;-42
2022/06/27 09:35:23;;;;;;;20.83;6.63;;;;;;;;;;5054679;28;20256;-42
2022/06/27 09:37:53;;;;;;;17.30;6.07;;;;;;;;;;5049374;28;20454;-42
2022/06/27 09:40:22;;;;;;;17.10;5.40;;;;;;;;;;5050555;28;20188;-42
2022/06/27 09:42:48;;;;;;;20.27;6.90;;;;;;;;;;5049987;28;20390;-42
2022/06/27 09:45:15;;;;;;;21.07;6.83;;;;;;;;;;5048167;28;20176;-42
2022/06/27 09:47:42;;;;;;;16.30;5.80;;;;;;;;;;5047594;28;20169;-42
2022/06/27 09:50:09;;;;;;;19.73;5.47;;;;;;;;;;5052719;28;20179;-42
2022/06/27 09:52:36;;;;;;;20.73;6.70;;;;;;;;;;5049062;28;20259;-42
2022/06/27 09:55:06;;;;;;;16.60;5.87;;;;;;;;;;5049732;28;20184;-42
2022/06/27 09:57:34;;;;;;;18.83;6.17;;;;;;;;;;5046558;28;20220;-42
2022/06/27 10:00:01;;;;;;;20.03;6.20;;;;;;;;;;5048164;28;20662;-41
2022/06/27 10:02:28;;;;;;;17.43;5.97;;;;;;;;;;5048323;28;20853;-42
2022/06/27 10:04:54;;;;;;;19.70;6.07;;;;;;;;;;5047674;28;20185;-41
2022/06/27 10:07:22;;;;;;;14.57;5.13;;;;;;;;;;5047836;28;20173;-42
2022/06/27 10:09:52;;;;;;;19.97;6.57;;;;;;;;;;5048303;28;20664;-42
2022/06/27 10:12:31;;;;;;;25.67;5.93;;;;;;;;;;5044148;28;20415;-42
2022/06/27 10:15:12;;;;;;;17.77;6.20;;;;;;;;;;5043836;28;20208;-42
2022/06/27 10:17:42;;;;;;;19.23;6.00;;;;;;;;;;5045350;28;20364;-41
2022/06/27 10:20:12;;;;;;;17.87;5.73;;;;;;;;;;5045979;28;20656;-42
2022/06/27 10:22:38;;;;;;;19.10;5.20;;;;;;;;;;5048347;28;20626;-41
2022/06/27 10:25:22;;;;;;;23.77;5.70;;;;;;;;;;5046815;28;20198;-42
2022/06/27 10:27:50;;;;;;;18.77;5.40;;;;;;;;;;5047860;28;20598;-42
2022/06/27 10:30:39;;;;;;;20.83;6.07;;;;;;;;;;5053145;28;20208;-40
2022/06/27 10:33:20;;;;;;;18.30;5.97;;;;;;;;;;5039163;28;20609;-42
2022/06/27 10:36:02;;;;;;;17.57;5.50;;;;;;;;;;5067331;28;20183;-42
2022/06/27 10:38:40;;;;;;;19.83;5.20;;;;;;;;;;5055802;28;20399;-41
2022/06/27 10:41:08;;;;;;;26.20;5.90;;;;;;;;;;5049738;28;20371;-42
2022/06/27 10:43:37;;;;;;;24.90;5.47;;;;;;;;;;5048369;28;20203;-42
2022/06/27 10:46:13;;;;;;;27.67;6.60;;;;;;;;;;5050720;28;20185;-42
2022/06/27 10:48:42;;;;;;;23.47;5.93;;;;;;;;;;5048756;28;20187;-42
2022/06/27 10:51:28;;;;;;;24.43;6.20;;;;;;;;;;5053306;28;20351;-42
2022/06/27 10:53:59;;;;;;;18.87;5.70;;;;;;;;;;5049839;28;20590;-42
2022/06/27 10:56:29;;;;;;;30.03;6.27;;;;;;;;;;5044683;28;21402;-40
2022/06/27 10:58:55;;;;;;;21.50;6.03;;;;;;;;;;5051212;28;20449;-42
2022/06/27 11:01:21;;;;;;;21.90;6.17;;;;;;;;;;5053223;28;20187;-41
2022/06/27 11:03:48;;;;;;;18.77;5.20;;;;;;;;;;5050627;28;20206;-42
2022/06/27 11:06:14;;;;;;;23.07;5.30;;;;;;;;;;5048667;28;20484;-42
2022/06/27 11:08:41;;;;;;;22.87;5.17;;;;;;;;;;5052330;28;20939;-42
2022/06/27 11:11:07;;;;;;;24.90;5.23;;;;;;;;;;5050758;28;20297;-42
2022/06/27 11:13:53;;;;;;;19.67;5.37;;;;;;;;;;5050506;28;20457;-43
2022/06/27 11:16:20;;;;;;;23.83;5.47;;;;;;;;;;5051745;28;20199;-42
2022/06/27 11:21:51;;;;;;;20.80;4.87;;;;;;;;;;5043129;28;20305;-42
2022/06/27 11:24:18;;;;;;;20.07;5.10;;;;;;;;;;5050905;28;20509;-42
2022/06/27 11:26:48;;;;;;;19.97;4.90;;;;;;;;;;5052031;28;20184;-42
2022/06/27 11:32:13;;;;;;;26.40;5.80;;;;;;;;;;5051810;28;20563;-42
2022/06/27 11:34:39;;;;;;;26.77;5.00;;;;;;;;;;5053706;28;20180;-42
2022/06/27 11:37:16;;;;;;;21.23;5.13;;;;;;;;;;5038480;28;20598;-41
2022/06/27 11:39:42;;;;;;;19.20;4.87;;;;;;;;;;5044747;28;20195;-42
2022/06/27 11:42:10;;;;;;;24.83;5.80;;;;;;;;;;5050516;28;20194;-42
2022/06/27 11:44:56;;;;;;;24.63;5.50;;;;;;;;;;5054480;28;20175;-42
2022/06/27 11:47:26;;;;;;;22.23;5.03;;;;;;;;;;5046311;28;20179;-42
2022/06/27 11:50:00;;;;;;;20.90;4.67;;;;;;;;;;5051063;28;20178;-42
2022/06/27 11:52:35;;;;;;;20.37;4.97;;;;;;;;;;5051786;28;20174;-42
2022/06/27 11:55:11;;;;;;;22.97;4.93;;;;;;;;;;5052547;28;20206;-42
2022/06/27 11:57:37;;;;;;;22.13;5.13;;;;;;;;;;5051137;28;20271;-42
2022/06/27 12:00:06;;;;;;;25.17;5.07;;;;;;;;;;5050258;28;20641;-41
2022/06/27 12:02:34;;;;;;;25.90;5.87;;;;;;;;;;5045989;28;20207;-42
2022/06/27 12:05:03;;;;;;;29.10;6.20;;;;;;;;;;5047760;28;20206;-42
2022/06/27 12:07:30;;;;;;;24.37;4.90;;;;;;;;;;5049574;28;20208;-41
2022/06/27 12:09:56;;;;;;;28.97;5.80;;;;;;;;;;5053435;28;20261;-41
2022/06/27 12:12:25;;;;;;;30.50;5.60;;;;;;;;;;5048791;28;20526;-42
2022/06/27 12:14:52;;;;;;;25.53;5.50;;;;;;;;;;5049464;28;20213;-42
2022/06/27 12:17:18;;;;;;;25.50;5.13;;;;;;;;;;5053056;28;20179;-42
2022/06/27 12:19:44;;;;;;;23.20;4.87;;;;;;;;;;5041285;28;20483;-42
2022/06/27 12:22:18;;;;;;;18.53;4.83;;;;;;;;;;5048438;28;20755;-41
2022/06/27 12:24:45;;;;;;;21.40;5.50;;;;;;;;;;5055300;28;20424;-42
2022/06/27 12:27:12;;;;;;;21.57;5.03;;;;;;;;;;5055344;28;20289;-41
2022/06/27 12:29:38;;;;;;;25.43;5.33;;;;;;;;;;5053329;28;20191;-42
2022/06/27 12:32:04;;;;;;;28.47;6.33;;;;;;;;;;5051584;28;20404;-42
2022/06/27 12:34:32;;;;;;;24.53;5.67;;;;;;;;;;5052306;28;20764;-42
2022/06/27 12:36:58;;;;;;;19.67;4.57;;;;;;;;;;5056251;28;20181;-42
2022/06/27 12:39:24;;;;;;;24.33;4.30;;;;;;;;;;5051683;28;20192;-42
2022/06/27 12:41:50;;;;;;;24.73;5.53;;;;;;;;;;5048273;28;20208;-42
2022/06/27 12:44:17;;;;;;;27.13;5.17;;;;;;;;;;5055143;28;21013;-40
2022/06/27 12:46:43;;;;;;;24.23;5.37;;;;;;;;;;5051106;28;20331;-41
2022/06/27 12:49:09;;;;;;;26.80;6.13;;;;;;;;;;5048700;28;21084;-42
2022/06/27 12:51:35;;;;;;;26.25;5.43;;;;;;;;;;5049823;28;20694;-42
2022/06/27 12:54:01;;;;;;;19.23;5.00;;;;;;;;;;5051426;28;20171;-42
2022/06/27 12:56:27;;;;;;;20.42;5.07;;;;;;;;;;5052584;28;20333;-42
2022/06/27 12:58:53;;;;;;;18.93;4.93;;;;;;;;;;5051459;28;20182;-42
2022/06/27 13:01:20;;;;;;;24.77;5.47;;;;;;;;;;5054821;28;20173;-42
2022/06/27 13:03:46;;;;;;;26.27;4.90;;;;;;;;;;5048102;28;20211;-42
2022/06/27 13:06:13;;;;;;;23.17;5.82;;;;;;;;;;5051974;28;20185;-41
2022/06/27 13:08:39;;;;;;;26.48;5.72;;;;;;;;;;5053031;28;20221;-42
2022/06/27 13:11:05;;;;;;;25.85;5.07;;;;;;;;;;5050071;28;20172;-42
2022/06/27 13:13:32;;;;;;;23.00;5.35;;;;;;;;;;5050819;28;20186;-42
2022/06/27 13:15:58;;;;;;;27.40;5.72;;;;;;;;;;5050418;28;20718;-42
2022/06/27 13:18:24;;;;;;;23.63;5.30;;;;;;;;;;5052557;28;20338;-42
2022/06/27 13:20:50;;;;;;;22.83;4.70;;;;;;;;;;5048656;28;20701;-42
2022/06/27 13:23:16;;;;;;;18.92;4.93;;;;;;;;;;5047522;28;20202;-42
2022/06/27 13:25:44;;;;;;;18.10;5.00;;;;;;;;;;5047279;28;20167;-42
2022/06/27 13:28:10;;;;;;;31.27;5.30;;;;;;;;;;5046583;28;20183;-42
2022/06/27 13:30:37;;;;;;;20.00;4.70;;;;;;;;;;5050679;28;20175;-42
2022/06/27 13:33:03;;;;;;;22.60;5.18;;;;;;;;;;5051159;28;20478;-42
2022/06/27 13:35:30;;;;;;;25.52;5.55;;;;;;;;;;5049888;28;20176;-41
2022/06/27 13:37:57;;;;;;;30.45;5.80;;;;;;;;;;5062889;27;20175;-42
2022/06/27 13:40:23;;;;;;;25.48;5.32;;;;;;;;;;5051587;28;20220;-42
2022/06/27 13:42:49;;;;;;;24.23;5.20;;;;;;;;;;5050831;28;20202;-41
2022/06/27 13:45:17;;;;;;;23.30;5.47;;;;;;;;;;5046204;28;20199;-40
2022/06/27 13:47:43;;;;;;;24.95;4.85;;;;;;;;;;5049789;28;20620;-42
2022/06/27 13:50:10;;;;;;;24.25;5.40;;;;;;;;;;5042530;28;20530;-42
2022/06/27 13:52:36;;;;;;;27.58;5.40;;;;;;;;;;5046579;28;20211;-42
2022/06/27 13:55:02;;;;;;;20.70;4.97;;;;;;;;;;5048749;28;20178;-42
2022/06/27 13:57:29;;;;;;;26.17;5.70;;;;;;;;;;5048000;28;20723;-42
2022/06/27 13:59:55;;;;;;;19.27;5.53;;;;;;;;;;5048369;28;20399;-42
2022/06/27 14:02:21;;;;;;;32.20;5.50;;;;;;;;;;5046415;28;20783;-42
2022/06/27 14:04:48;;;;;;;27.17;5.45;;;;;;;;;;5049497;28;20693;-42
2022/06/27 14:09:59;;;;;;;27.15;5.03;;;;;;;;;;5047213;28;20284;-42
2022/06/27 14:12:25;;;;;;;23.13;5.28;;;;;;;;;;5049007;28;20422;-42
2022/06/27 14:14:51;;;;;;;26.27;5.43;;;;;;;;;;5048715;28;20191;-42
2022/06/27 14:17:17;;;;;;;24.38;4.80;;;;;;;;;;5048970;28;20638;-42
2022/06/27 14:19:43;;;;;;;26.25;5.47;;;;;;;;;;5045433;28;20183;-42
2022/06/27 14:22:10;;;;;;;24.85;5.57;;;;;;;;;;5052912;28;20200;-42
2022/06/27 14:24:36;;;;;;;25.13;4.85;;;;;;;;;;5049097;28;20175;-42
2022/06/27 14:27:02;;;;;;;21.02;5.20;;;;;;;;;;5045520;28;20186;-42
2022/06/27 14:29:28;;;;;;;29.98;5.13;;;;;;;;;;5053776;28;20393;-42
2022/06/27 14:31:55;;;;;;;24.30;4.93;;;;;;;;;;5050006;28;20948;-42
2022/06/27 14:34:21;;;;;;;28.10;5.45;;;;;;;;;;5046972;28;20209;-42
2022/06/27 14:36:47;;;;;;;22.42;5.00;;;;;;;;;;5047428;28;20167;-42
2022/06/27 14:39:13;;;;;;;23.20;5.13;;;;;;;;;;5051916;28;20195;-42
2022/06/27 14:41:45;;;;;;;24.98;6.47;;;;;;;;;;5051591;28;20175;-42
2022/06/27 14:44:11;;;;;;;20.13;5.32;;;;;;;;;;5047591;28;21001;-42